sensor_id;sensor_type;location;lat;lon;timestamp;pressure;altitude;pressure_sealevel;temperature;humidity
52625;BME280;38519;52.540;13.410;2023-02-16T00:01:14;101602.44;;;2.82;100.00
52625;BME280;38519;52.540;13.410;2023-02-16T00:03:41;101592.25;;;2.90;100.00
52625;BME280;38519;52.540;13.410;2023-02-16T00:06:06;101592.25;;;2.98;100.00
52625;BME280;38519;52.540;13.410;2023-02-16T00:08:32;101596.69;;;2.91;100.00
52625;BME280;38519;52.540;13.410;2023-02-16T00:10:58;101591.41;;;2.83;100.00
52625;BME280;38519;52.540;13.410;2023-02-16T00:13:41;101591.22;;;2.74;100.00
52625;BME280;38519;52.540;13.410;2023-02-16T00:16:22;101603.34;;;2.82;100.00
52625;BME280;38519;52.540;13.410;2023-02-16T00:18:48;101607.81;;;2.76;100.00
52625;BME280;38519;52.540;13.410;2023-02-16T00:21:14;101607.63;;;2.67;100.00
52625;BME280;38519;52.540;13.410;2023-02-16T00:23:40;101602.47;;;2.75;100.00
52625;BME280;38519;52.540;13.410;2023-02-16T00:26:08;101601.91;;;2.84;100.00
52625;BME280;38519;52.540;13.410;2023-02-16T00:28:34;101595.28;;;2.72;100.00
52625;BME280;38519;52.540;13.410;2023-02-16T00:31:00;101600.81;;;2.75;100.00
52625;BME280;38519;52.540;13.410;2023-02-16T00:33:25;101603.75;;;2.78;100.00
52625;BME280;38519;52.540;13.410;2023-02-16T00:35:50;101598.38;;;2.91;100.00
52625;BME280;38519;52.540;13.410;2023-02-16T00:38:16;101594.88;;;2.83;100.00
52625;BME280;38519;52.540;13.410;2023-02-16T00:40:41;101590.28;;;2.88;100.00
52625;BME280;38519;52.540;13.410;2023-02-16T00:43:08;101597.81;;;2.79;100.00
52625;BME280;38519;52.540;13.410;2023-02-16T00:45:35;101598.03;;;2.66;100.00
52625;BME280;38519;52.540;13.410;2023-02-16T00:48:01;101605.06;;;2.60;100.00
52625;BME280;38519;52.540;13.410;2023-02-16T00:50:30;101596.59;;;2.61;100.00
52625;BME280;38519;52.540;13.410;2023-02-16T00:52:57;101603.22;;;2.59;100.00
52625;BME280;38519;52.540;13.410;2023-02-16T00:55:24;101597.53;;;2.54;100.00
52625;BME280;38519;52.540;13.410;2023-02-16T00:58:12;101597.13;;;2.66;100.00
52625;BME280;38519;52.540;13.410;2023-02-16T01:00:37;101596.00;;;2.78;100.00
52625;BME280;38519;52.540;13.410;2023-02-16T01:03:05;101597.66;;;2.85;100.00
52625;BME280;38519;52.540;13.410;2023-02-16T01:05:31;101594.16;;;2.77;100.00
52625;BME280;38519;52.540;13.410;2023-02-16T01:07:57;101596.00;;;2.78;100.00
52625;BME280;38519;52.540;13.410;2023-02-16T01:10:40;101591.94;;;2.80;100.00
52625;BME280;38519;52.540;13.410;2023-02-16T01:13:25;101593.63;;;2.80;100.00
52625;BME280;38519;52.540;13.410;2023-02-16T01:15:51;101597.84;;;2.72;100.00
52625;BME280;38519;52.540;13.410;2023-02-16T01:18:17;101599.34;;;2.63;100.00
52625;BME280;38519;52.540;13.410;2023-02-16T01:20:43;101601.91;;;2.63;100.00
52625;BME280;38519;52.540;13.410;2023-02-16T01:23:08;101589.78;;;2.62;100.00
52625;BME280;38519;52.540;13.410;2023-02-16T01:25:36;101583.91;;;2.55;100.00
52625;BME280;38519;52.540;13.410;2023-02-16T01:28:02;101590.34;;;2.45;100.00
52625;BME280;38519;52.540;13.410;2023-02-16T01:30:27;101592.53;;;2.56;100.00
52625;BME280;38519;52.540;13.410;2023-02-16T01:32:53;101578.38;;;2.45;100.00
52625;BME280;38519;52.540;13.410;2023-02-16T01:35:20;101583.16;;;2.49;100.00
52625;BME280;38519;52.540;13.410;2023-02-16T01:37:46;101576.72;;;2.53;100.00
52625;BME280;38519;52.540;13.410;2023-02-16T01:40:36;101573.94;;;2.51;100.00
52625;BME280;38519;52.540;13.410;2023-02-16T01:43:03;101573.22;;;2.45;100.00
52625;BME280;38519;52.540;13.410;2023-02-16T01:45:33;101573.44;;;2.40;100.00
52625;BME280;38519;52.540;13.410;2023-02-16T01:48:04;101569.72;;;2.45;100.00
52625;BME280;38519;52.540;13.410;2023-02-16T01:50:36;101566.22;;;2.51;100.00
52625;BME280;38519;52.540;13.410;2023-02-16T01:53:05;101571.56;;;2.53;100.00
52625;BME280;38519;52.540;13.410;2023-02-16T01:55:37;101568.81;;;2.59;100.00
52625;BME280;38519;52.540;13.410;2023-02-16T01:58:06;101572.47;;;2.61;100.00
52625;BME280;38519;52.540;13.410;2023-02-16T02:03:13;101566.91;;;2.65;100.00
52625;BME280;38519;52.540;13.410;2023-02-16T02:05:59;101564.72;;;2.61;100.00
52625;BME280;38519;52.540;13.410;2023-02-16T02:08:30;101578.53;;;2.61;100.00
52625;BME280;38519;52.540;13.410;2023-02-16T02:11:21;101568.94;;;2.67;100.00
52625;BME280;38519;52.540;13.410;2023-02-16T02:13:53;101566.19;;;2.73;100.00
52625;BME280;38519;52.540;13.410;2023-02-16T02:16:21;101561.03;;;2.73;100.00
52625;BME280;38519;52.540;13.410;2023-02-16T02:18:47;101559.19;;;2.72;100.00
52625;BME280;38519;52.540;13.410;2023-02-16T02:29:11;101561.44;;;2.40;100.00
52625;BME280;38519;52.540;13.410;2023-02-16T02:31:47;101555.94;;;2.44;100.00
52625;BME280;38519;52.540;13.410;2023-02-16T02:36:59;101559.22;;;2.50;100.00
52625;BME280;38519;52.540;13.410;2023-02-16T02:42:08;101560.91;;;2.43;100.00
52625;BME280;38519;52.540;13.410;2023-02-16T02:44:46;101552.97;;;2.48;100.00
52625;BME280;38519;52.540;13.410;2023-02-16T02:47:14;101546.34;;;2.43;100.00
52625;BME280;38519;52.540;13.410;2023-02-16T02:49:39;101553.72;;;2.40;100.00
52625;BME280;38519;52.540;13.410;2023-02-16T02:52:06;101545.25;;;2.34;100.00
52625;BME280;38519;52.540;13.410;2023-02-16T02:54:35;101544.53;;;2.28;100.00
52625;BME280;38519;52.540;13.410;2023-02-16T02:57:22;101535.69;;;2.47;100.00
52625;BME280;38519;52.540;13.410;2023-02-16T03:00:15;101533.66;;;2.45;100.00
52625;BME280;38519;52.540;13.410;2023-02-16T03:03:17;101533.28;;;2.49;100.00
52625;BME280;38519;52.540;13.410;2023-02-16T03:08:21;101536.75;;;2.42;100.00
52625;BME280;38519;52.540;13.410;2023-02-16T03:10:49;101531.63;;;2.28;100.00
52625;BME280;38519;52.540;13.410;2023-02-16T03:13:35;101536.63;;;2.33;100.00
52625;BME280;38519;52.540;13.410;2023-02-16T03:16:03;101533.47;;;2.43;100.00
52625;BME280;38519;52.540;13.410;2023-02-16T03:18:31;101538.06;;;2.39;100.00
52625;BME280;38519;52.540;13.410;2023-02-16T03:21:17;101525.00;;;2.37;100.00
52625;BME280;38519;52.540;13.410;2023-02-16T03:24:02;101532.38;;;2.41;100.00
52625;BME280;38519;52.540;13.410;2023-02-16T03:26:47;101525.41;;;2.33;100.00
52625;BME280;38519;52.540;13.410;2023-02-16T03:29:31;101527.59;;;2.30;100.00
52625;BME280;38519;52.540;13.410;2023-02-16T03:31:57;101536.44;;;2.32;100.00
52625;BME280;38519;52.540;13.410;2023-02-16T03:34:23;101536.78;;;2.35;100.00
52625;BME280;38519;52.540;13.410;2023-02-16T03:36:49;101536.41;;;2.39;100.00
52625;BME280;38519;52.540;13.410;2023-02-16T03:39:16;101536.06;;;2.36;100.00
52625;BME280;38519;52.540;13.410;2023-02-16T03:41:42;101527.22;;;2.34;100.00
52625;BME280;38519;52.540;13.410;2023-02-16T03:44:09;101531.81;;;2.36;100.00
52625;BME280;38519;52.540;13.410;2023-02-16T03:46:35;101525.41;;;2.33;100.00
52625;BME280;38519;52.540;13.410;2023-02-16T03:49:00;101530.34;;;2.24;100.00
52625;BME280;38519;52.540;13.410;2023-02-16T03:51:25;101529.09;;;2.21;100.00
52625;BME280;38519;52.540;13.410;2023-02-16T03:53:50;101519.91;;;2.15;100.00
52625;BME280;38519;52.540;13.410;2023-02-16T03:56:17;101532.22;;;2.11;100.00
52625;BME280;38519;52.540;13.410;2023-02-16T03:58:42;101527.25;;;2.05;100.00
52625;BME280;38519;52.540;13.410;2023-02-16T04:01:07;101529.84;;;1.98;100.00
52625;BME280;38519;52.540;13.410;2023-02-16T04:03:33;101522.28;;;1.92;100.00
52625;BME280;38519;52.540;13.410;2023-02-16T04:05:58;101527.63;;;1.94;100.00
52625;BME280;38519;52.540;13.410;2023-02-16T04:08:24;101522.84;;;1.90;100.00
52625;BME280;38519;52.540;13.410;2023-02-16T04:10:49;101529.66;;;1.96;100.00
52625;BME280;38519;52.540;13.410;2023-02-16T04:13:14;101528.00;;;2.04;100.00
52625;BME280;38519;52.540;13.410;2023-02-16T04:15:39;101525.97;;;2.02;100.00
52625;BME280;38519;52.540;13.410;2023-02-16T04:18:08;101525.97;;;1.94;100.00
52625;BME280;38519;52.540;13.410;2023-02-16T04:20:33;101526.91;;;1.95;100.00
52625;BME280;38519;52.540;13.410;2023-02-16T04:22:59;101532.41;;;2.05;100.00
52625;BME280;38519;52.540;13.410;2023-02-16T04:25:24;101538.28;;;2.11;100.00
52625;BME280;38519;52.540;13.410;2023-02-16T04:27:50;101531.66;;;2.21;100.00
52625;BME280;38519;52.540;13.410;2023-02-16T04:30:16;101534.63;;;2.09;100.00
52625;BME280;38519;52.540;13.410;2023-02-16T04:32:42;101533.16;;;2.04;100.00
52625;BME280;38519;52.540;13.410;2023-02-16T04:35:08;101531.47;;;2.05;100.00
52625;BME280;38519;52.540;13.410;2023-02-16T04:37:33;101532.22;;;2.04;100.00
52625;BME280;38519;52.540;13.410;2023-02-16T04:39:58;101535.72;;;2.04;100.00
52625;BME280;38519;52.540;13.410;2023-02-16T04:42:24;101527.97;;;1.97;100.00
52625;BME280;38519;52.540;13.410;2023-02-16T04:44:49;101530.75;;;1.91;100.00
52625;BME280;38519;52.540;13.410;2023-02-16T04:47:15;101529.47;;;1.95;100.00
52625;BME280;38519;52.540;13.410;2023-02-16T04:49:41;101517.88;;;1.98;100.00
52625;BME280;38519;52.540;13.410;2023-02-16T04:52:06;101522.09;;;2.05;100.00
52625;BME280;38519;52.540;13.410;2023-02-16T04:54:32;101516.56;;;2.02;100.00
52625;BME280;38519;52.540;13.410;2023-02-16T04:56:57;101523.03;;;2.06;100.00
52625;BME280;38519;52.540;13.410;2023-02-16T04:59:22;101524.88;;;1.99;100.00
52625;BME280;38519;52.540;13.410;2023-02-16T05:01:48;101523.22;;;1.93;100.00
52625;BME280;38519;52.540;13.410;2023-02-16T05:04:13;101523.94;;;1.92;100.00
52625;BME280;38519;52.540;13.410;2023-02-16T05:06:38;101519.16;;;1.95;100.00
52625;BME280;38519;52.540;13.410;2023-02-16T05:09:04;101525.97;;;1.87;100.00
52625;BME280;38519;52.540;13.410;2023-02-16T05:11:30;101509.78;;;1.74;100.00
52625;BME280;38519;52.540;13.410;2023-02-16T05:14:21;101522.84;;;1.90;100.00
52625;BME280;38519;52.540;13.410;2023-02-16T05:17:05;101528.91;;;1.90;100.00
52625;BME280;38519;52.540;13.410;2023-02-16T05:19:31;101537.75;;;1.85;100.00
52625;BME280;38519;52.540;13.410;2023-02-16T05:21:56;101529.44;;;1.88;100.00
52625;BME280;38519;52.540;13.410;2023-02-16T05:24:21;101538.66;;;1.86;100.00
52625;BME280;38519;52.540;13.410;2023-02-16T05:26:47;101530.56;;;1.90;100.00
52625;BME280;38519;52.540;13.410;2023-02-16T05:29:12;101536.25;;;1.87;100.00
52625;BME280;38519;52.540;13.410;2023-02-16T05:31:37;101533.72;;;1.94;100.00
52625;BME280;38519;52.540;13.410;2023-02-16T05:34:03;101539.56;;;2.00;100.00
52625;BME280;38519;52.540;13.410;2023-02-16T05:36:28;101531.84;;;1.93;100.00
52625;BME280;38519;52.540;13.410;2023-02-16T05:38:53;101528.56;;;1.94;100.00
52625;BME280;38519;52.540;13.410;2023-02-16T05:41:18;101529.84;;;1.98;100.00
52625;BME280;38519;52.540;13.410;2023-02-16T05:43:53;101525.78;;;2.00;100.00
52625;BME280;38519;52.540;13.410;2023-02-16T05:46:19;101522.09;;;1.91;100.00
52625;BME280;38519;52.540;13.410;2023-02-16T05:48:44;101526.16;;;1.89;100.00
52625;BME280;38519;52.540;13.410;2023-02-16T05:51:10;101524.47;;;1.89;100.00
52625;BME280;38519;52.540;13.410;2023-02-16T05:53:35;101524.69;;;1.84;100.00
52625;BME280;38519;52.540;13.410;2023-02-16T05:56:00;101524.31;;;1.80;100.00
52625;BME280;38519;52.540;13.410;2023-02-16T05:58:26;101537.53;;;1.76;100.00
52625;BME280;38519;52.540;13.410;2023-02-16T06:00:51;101539.94;;;1.75;100.00
52625;BME280;38519;52.540;13.410;2023-02-16T06:03:17;101544.53;;;1.77;100.00
52625;BME280;38519;52.540;13.410;2023-02-16T06:05:42;101557.59;;;1.79;100.00
52625;BME280;38519;52.540;13.410;2023-02-16T06:08:08;101556.31;;;1.75;100.00
52625;BME280;38519;52.540;13.410;2023-02-16T06:10:33;101554.09;;;1.71;100.00
52625;BME280;38519;52.540;13.410;2023-02-16T06:12:58;101553.00;;;1.84;100.00
52625;BME280;38519;52.540;13.410;2023-02-16T06:15:24;101547.69;;;1.82;100.00
52625;BME280;38519;52.540;13.410;2023-02-16T06:17:49;101542.88;;;1.78;100.00
52625;BME280;38519;52.540;13.410;2023-02-16T06:20:14;101548.94;;;1.71;100.00
52625;BME280;38519;52.540;13.410;2023-02-16T06:22:39;101547.47;;;1.73;100.00
52625;BME280;38519;52.540;13.410;2023-02-16T06:25:05;101551.72;;;1.80;100.00
52625;BME280;38519;52.540;13.410;2023-02-16T06:27:30;101552.63;;;1.88;100.00
52625;BME280;38519;52.540;13.410;2023-02-16T06:29:55;101555.38;;;1.89;100.00
52625;BME280;38519;52.540;13.410;2023-02-16T06:32:20;101554.66;;;1.90;100.00
52625;BME280;38519;52.540;13.410;2023-02-16T06:34:46;101550.25;;;1.82;100.00
52625;BME280;38519;52.540;13.410;2023-02-16T06:37:11;101559.25;;;1.86;100.00
52625;BME280;38519;52.540;13.410;2023-02-16T06:39:36;101557.06;;;1.81;100.00
52625;BME280;38519;52.540;13.410;2023-02-16T06:42:01;101558.88;;;1.82;100.00
52625;BME280;38519;52.540;13.410;2023-02-16T06:44:27;101563.88;;;1.88;100.00
52625;BME280;38519;52.540;13.410;2023-02-16T06:46:52;101567.91;;;1.93;100.00
52625;BME280;38519;52.540;13.410;2023-02-16T06:49:18;101569.00;;;1.95;100.00
52625;BME280;38519;52.540;13.410;2023-02-16T06:51:44;101562.94;;;1.95;100.00
52625;BME280;38519;52.540;13.410;2023-02-16T06:54:10;101561.84;;;2.00;100.00
52625;BME280;38519;52.540;13.410;2023-02-16T06:56:35;101568.66;;;2.07;100.00
52625;BME280;38519;52.540;13.410;2023-02-16T06:59:01;101566.81;;;2.13;100.00
52625;BME280;38519;52.540;13.410;2023-02-16T07:01:26;101571.59;;;2.10;100.00
52625;BME280;38519;52.540;13.410;2023-02-16T07:03:52;101571.59;;;2.17;100.00
52625;BME280;38519;52.540;13.410;2023-02-16T07:06:17;101564.22;;;2.13;100.00
52625;BME280;38519;52.540;13.410;2023-02-16T07:08:43;101567.72;;;2.13;100.00
52625;BME280;38519;52.540;13.410;2023-02-16T07:11:08;101575.06;;;2.25;100.00
52625;BME280;38519;52.540;13.410;2023-02-16T07:13:34;101564.97;;;2.12;100.00
52625;BME280;38519;52.540;13.410;2023-02-16T07:16:02;101568.66;;;2.14;100.00
52625;BME280;38519;52.540;13.410;2023-02-16T07:18:27;101568.47;;;2.19;100.00
52625;BME280;38519;52.540;13.410;2023-02-16T07:20:52;101559.81;;;2.19;100.00
52625;BME280;38519;52.540;13.410;2023-02-16T07:23:18;101557.59;;;2.29;100.00
52625;BME280;38519;52.540;13.410;2023-02-16T07:25:43;101556.13;;;2.39;100.00
52625;BME280;38519;52.540;13.410;2023-02-16T07:28:08;101559.97;;;2.49;100.00
52625;BME280;38519;52.540;13.410;2023-02-16T07:30:34;101557.03;;;2.46;100.00
52625;BME280;38519;52.540;13.410;2023-02-16T07:32:59;101555.16;;;2.45;100.00
52625;BME280;38519;52.540;13.410;2023-02-16T07:35:24;101557.34;;;2.57;100.00
52625;BME280;38519;52.540;13.410;2023-02-16T07:37:50;101548.34;;;2.60;100.00
52625;BME280;38519;52.540;13.410;2023-02-16T07:40:15;101554.25;;;2.59;100.00
52625;BME280;38519;52.540;13.410;2023-02-16T07:42:40;101545.78;;;2.53;100.00
52625;BME280;38519;52.540;13.410;2023-02-16T07:45:05;101539.13;;;2.55;100.00
52625;BME280;38519;52.540;13.410;2023-02-16T07:47:31;101540.59;;;2.67;100.00
52625;BME280;38519;52.540;13.410;2023-02-16T07:49:56;101548.84;;;2.72;100.00
52625;BME280;38519;52.540;13.410;2023-02-16T07:52:21;101546.66;;;2.75;100.00
52625;BME280;38519;52.540;13.410;2023-02-16T07:54:49;101549.38;;;2.84;100.00
52625;BME280;38519;52.540;13.410;2023-02-16T07:57:15;101550.84;;;2.89;100.00
52625;BME280;38519;52.540;13.410;2023-02-16T07:59:40;101556.88;;;2.97;100.00
52625;BME280;38519;52.540;13.410;2023-02-16T08:02:06;101559.28;;;2.95;100.00
52625;BME280;38519;52.540;13.410;2023-02-16T08:04:31;101560.94;;;2.95;100.00
52625;BME280;38519;52.540;13.410;2023-02-16T08:06:56;101568.31;;;2.99;100.00
52625;BME280;38519;52.540;13.410;2023-02-16T08:09:21;101568.31;;;2.99;100.00
52625;BME280;38519;52.540;13.410;2023-02-16T08:11:47;101565.19;;;2.94;100.00
52625;BME280;38519;52.540;13.410;2023-02-16T08:14:13;101566.09;;;2.95;100.00
52625;BME280;38519;52.540;13.410;2023-02-16T08:16:38;101561.13;;;2.96;100.00
52625;BME280;38519;52.540;13.410;2023-02-16T08:19:04;101563.84;;;3.05;100.00
52625;BME280;38519;52.540;13.410;2023-02-16T08:21:30;101566.09;;;3.02;100.00
52625;BME280;38519;52.540;13.410;2023-02-16T08:23:57;101576.41;;;2.95;100.00
52625;BME280;38519;52.540;13.410;2023-02-16T08:26:24;101569.78;;;2.97;100.00
52625;BME280;38519;52.540;13.410;2023-02-16T08:28:49;101573.25;;;3.04;100.00
52625;BME280;38519;52.540;13.410;2023-02-16T08:31:17;101570.78;;;3.20;100.00
52625;BME280;38519;52.540;13.410;2023-02-16T08:33:43;101572.03;;;3.31;100.00
52625;BME280;38519;52.540;13.410;2023-02-16T08:36:15;101580.09;;;3.41;100.00
52625;BME280;38519;52.540;13.410;2023-02-16T08:38:41;101577.16;;;3.38;100.00
52625;BME280;38519;52.540;13.410;2023-02-16T08:41:07;101571.38;;;3.48;100.00
52625;BME280;38519;52.540;13.410;2023-02-16T08:43:32;101576.69;;;3.57;100.00
52625;BME280;38519;52.540;13.410;2023-02-16T08:45:58;101564.06;;;3.67;100.00
52625;BME280;38519;52.540;13.410;2023-02-16T08:48:23;101569.94;;;3.73;100.00
52625;BME280;38519;52.540;13.410;2023-02-16T08:50:48;101561.03;;;3.78;100.00
52625;BME280;38519;52.540;13.410;2023-02-16T08:53:20;101555.25;;;3.88;100.00
52625;BME280;38519;52.540;13.410;2023-02-16T08:55:54;101556.72;;;3.93;100.00
52625;BME280;38519;52.540;13.410;2023-02-16T08:58:19;101554.91;;;4.08;100.00
52625;BME280;38519;52.540;13.410;2023-02-16T09:00:45;101559.03;;;4.22;100.00
52625;BME280;38519;52.540;13.410;2023-02-16T09:03:10;101552.25;;;4.38;100.00
52625;BME280;38519;52.540;13.410;2023-02-16T09:05:35;101549.56;;;4.46;100.00
52625;BME280;38519;52.540;13.410;2023-02-16T09:08:00;101559.78;;;4.60;100.00
52625;BME280;38519;52.540;13.410;2023-02-16T09:10:26;101560.38;;;4.73;100.00
52625;BME280;38519;52.540;13.410;2023-02-16T09:12:51;101544.84;;;4.89;100.00
52625;BME280;38519;52.540;13.410;2023-02-16T09:15:17;101546.59;;;4.98;100.00
52625;BME280;38519;52.540;13.410;2023-02-16T09:17:42;101549.44;;;5.08;100.00
52625;BME280;38519;52.540;13.410;2023-02-16T09:20:08;101555.00;;;5.20;100.00
52625;BME280;38519;52.540;13.410;2023-02-16T09:22:33;101562.25;;;5.31;100.00
52625;BME280;38519;52.540;13.410;2023-02-16T09:24:58;101558.84;;;5.39;100.00
52625;BME280;38519;52.540;13.410;2023-02-16T09:27:24;101560.56;;;5.47;100.00
52625;BME280;38519;52.540;13.410;2023-02-16T09:29:50;101561.84;;;5.60;100.00
52625;BME280;38519;52.540;13.410;2023-02-16T09:32:15;101568.34;;;5.72;100.00
52625;BME280;38519;52.540;13.410;2023-02-16T09:34:41;101557.09;;;5.80;100.00
52625;BME280;38519;52.540;13.410;2023-02-16T09:37:08;101554.13;;;5.93;100.00
52625;BME280;38519;52.540;13.410;2023-02-16T09:39:34;101562.59;;;5.99;100.00
52625;BME280;38519;52.540;13.410;2023-02-16T09:42:19;101551.06;;;6.13;100.00
52625;BME280;38519;52.540;13.410;2023-02-16T09:47:27;101556.75;;;6.27;100.00
52625;BME280;38519;52.540;13.410;2023-02-16T09:49:55;101556.50;;;6.41;100.00
52625;BME280;38519;52.540;13.410;2023-02-16T09:53:05;101551.38;;;6.59;100.00
52625;BME280;38519;52.540;13.410;2023-02-16T09:55:12;101545.88;;;6.64;100.00
52625;BME280;38519;52.540;13.410;2023-02-16T10:08:08;101550.34;;;7.26;100.00
52625;BME280;38519;52.540;13.410;2023-02-16T10:13:25;101549.88;;;7.57;100.00
52625;BME280;38519;52.540;13.410;2023-02-16T10:15:52;101559.50;;;7.66;100.00
52625;BME280;38519;52.540;13.410;2023-02-16T10:18:21;101547.25;;;7.65;100.00
52625;BME280;38519;52.540;13.410;2023-02-16T10:20:49;101555.00;;;7.83;100.00
52625;BME280;38519;52.540;13.410;2023-02-16T10:31:12;101563.75;;;7.83;100.00
52625;BME280;38519;52.540;13.410;2023-02-16T10:33:44;101560.81;;;7.89;100.00
52625;BME280;38519;52.540;13.410;2023-02-16T10:39:07;101552.19;;;8.08;100.00
52625;BME280;38519;52.540;13.410;2023-02-16T10:41:38;101540.56;;;8.04;100.00
52625;BME280;38519;52.540;13.410;2023-02-16T10:46:46;101529.25;;;8.40;100.00
52625;BME280;38519;52.540;13.410;2023-02-16T10:49:13;101537.13;;;8.59;100.00
52625;BME280;38519;52.540;13.410;2023-02-16T10:51:39;101534.47;;;8.68;100.00
52625;BME280;38519;52.540;13.410;2023-02-16T10:54:07;101534.91;;;8.72;100.00
52625;BME280;38519;52.540;13.410;2023-02-16T10:59:03;101540.47;;;8.67;100.00
52625;BME280;38519;52.540;13.410;2023-02-16T11:01:52;101532.00;;;8.69;100.00
52625;BME280;38519;52.540;13.410;2023-02-16T11:04:37;101531.03;;;8.78;100.00
52625;BME280;38519;52.540;13.410;2023-02-16T11:07:10;101519.41;;;8.74;100.00
52625;BME280;38519;52.540;13.410;2023-02-16T11:09:36;101525.81;;;8.78;100.00
52625;BME280;38519;52.540;13.410;2023-02-16T11:12:12;101521.13;;;8.73;100.00
52625;BME280;38519;52.540;13.410;2023-02-16T11:14:39;101520.00;;;8.80;100.00
52625;BME280;38519;52.540;13.410;2023-02-16T11:17:07;101520.47;;;8.76;100.00
52625;BME280;38519;52.540;13.410;2023-02-16T11:19:35;101517.25;;;8.79;100.00
52625;BME280;38519;52.540;13.410;2023-02-16T11:22:02;101516.97;;;8.75;100.00
52625;BME280;38519;52.540;13.410;2023-02-16T11:24:35;101519.63;;;8.86;100.00
52625;BME280;38519;52.540;13.410;2023-02-16T11:27:18;101518.25;;;8.89;100.00
52625;BME280;38519;52.540;13.410;2023-02-16T11:29:43;101514.81;;;8.99;100.00
52625;BME280;38519;52.540;13.410;2023-02-16T11:32:09;101509.50;;;9.08;100.00
52625;BME280;38519;52.540;13.410;2023-02-16T11:34:41;101508.66;;;9.18;100.00
52625;BME280;38519;52.540;13.410;2023-02-16T11:37:24;101504.38;;;9.18;100.00
52625;BME280;38519;52.540;13.410;2023-02-16T11:39:56;101499.69;;;9.24;100.00
52625;BME280;38519;52.540;13.410;2023-02-16T11:44:52;101490.75;;;9.31;100.00
52625;BME280;38519;52.540;13.410;2023-02-16T11:49:47;101488.97;;;9.40;100.00
52625;BME280;38519;52.540;13.410;2023-02-16T11:52:23;101492.38;;;9.39;100.00
52625;BME280;38519;52.540;13.410;2023-02-16T11:54:51;101495.66;;;9.47;100.00
52625;BME280;38519;52.540;13.410;2023-02-16T11:57:24;101480.06;;;9.57;100.00
52625;BME280;38519;52.540;13.410;2023-02-16T11:59:51;101484.38;;;9.67;100.00
52625;BME280;38519;52.540;13.410;2023-02-16T12:02:26;101475.56;;;9.75;100.00
52625;BME280;38519;52.540;13.410;2023-02-16T12:10:07;101470.81;;;10.00;100.00
52625;BME280;38519;52.540;13.410;2023-02-16T12:18:28;101472.78;;;10.13;100.00
52625;BME280;38519;52.540;13.410;2023-02-16T12:22:55;101470.50;;;10.37;100.00
52625;BME280;38519;52.540;13.410;2023-02-16T12:25:28;101467.97;;;10.28;100.00
52625;BME280;38519;52.540;13.410;2023-02-16T12:31:14;101467.75;;;10.35;100.00
52625;BME280;38519;52.540;13.410;2023-02-16T12:38:50;101455.88;;;10.60;100.00
52625;BME280;38519;52.540;13.410;2023-02-16T12:42:09;101460.94;;;10.68;100.00
52625;BME280;38519;52.540;13.410;2023-02-16T12:44:14;101461.84;;;10.79;100.00
52625;BME280;38519;52.540;13.410;2023-02-16T12:46:42;101457.28;;;10.87;100.00
52625;BME280;38519;52.540;13.410;2023-02-16T12:51:42;101454.41;;;10.84;100.00
52625;BME280;38519;52.540;13.410;2023-02-16T12:56:42;101453.25;;;10.60;100.00
52625;BME280;38519;52.540;13.410;2023-02-16T12:59:16;101445.69;;;10.42;100.00
52625;BME280;38519;52.540;13.410;2023-02-16T13:01:42;101448.25;;;10.32;100.00
52625;BME280;38519;52.540;13.410;2023-02-16T13:14:30;101430.50;;;10.69;100.00
52625;BME280;38519;52.540;13.410;2023-02-16T13:16:58;101434.16;;;10.81;100.00
52625;BME280;38519;52.540;13.410;2023-02-16T13:19:26;101435.44;;;10.86;100.00
52625;BME280;38519;52.540;13.410;2023-02-16T13:26:53;101432.09;;;11.74;100.00
52625;BME280;38519;52.540;13.410;2023-02-16T13:29:30;101430.50;;;12.09;100.00
52625;BME280;38519;52.540;13.410;2023-02-16T13:32:14;101422.56;;;12.19;100.00
52625;BME280;38519;52.540;13.410;2023-02-16T13:40:33;101418.28;;;11.43;100.00
52625;BME280;38519;52.540;13.410;2023-02-16T13:45:38;101426.47;;;11.15;100.00
52625;BME280;38519;52.540;13.410;2023-02-16T13:48:21;101420.50;;;11.06;100.00
52625;BME280;38519;52.540;13.410;2023-02-16T13:50:54;101425.50;;;11.03;100.00
52625;BME280;38519;52.540;13.410;2023-02-16T13:53:20;101429.78;;;11.02;100.00
52625;BME280;38519;52.540;13.410;2023-02-16T13:55:47;101423.00;;;11.04;100.00
52625;BME280;38519;52.540;13.410;2023-02-16T14:00:46;101419.75;;;10.97;100.00
52625;BME280;38519;52.540;13.410;2023-02-16T14:05:44;101423.09;;;11.06;100.00
52625;BME280;38519;52.540;13.410;2023-02-16T14:08:11;101421.44;;;11.06;100.00
52625;BME280;38519;52.540;13.410;2023-02-16T14:13:41;101408.75;;;11.11;100.00
52625;BME280;38519;52.540;13.410;2023-02-16T14:18:44;101414.81;;;11.22;100.00
52625;BME280;38519;52.540;13.410;2023-02-16T14:21:19;101412.31;;;11.23;100.00
52625;BME280;38519;52.540;13.410;2023-02-16T14:23:58;101412.44;;;11.25;100.00
52625;BME280;38519;52.540;13.410;2023-02-16T14:26:25;101419.69;;;11.17;100.00
52625;BME280;38519;52.540;13.410;2023-02-16T14:29:01;101428.44;;;11.18;100.00
52625;BME280;38519;52.540;13.410;2023-02-16T14:31:32;101419.97;;;11.10;100.00
52625;BME280;38519;52.540;13.410;2023-02-16T14:34:11;101413.47;;;11.05;100.00
52625;BME280;38519;52.540;13.410;2023-02-16T14:39:23;101411.63;;;11.04;100.00
52625;BME280;38519;52.540;13.410;2023-02-16T14:41:50;101405.63;;;11.05;100.00
52625;BME280;38519;52.540;13.410;2023-02-16T14:44:28;101411.50;;;11.02;100.00